createdAt,value
2023-11-05T00:01:03.432Z,10.50
2023-11-05T00:03:30.975Z,10.50
2023-11-05T00:05:58.280Z,10.50
2023-11-05T00:08:25.410Z,10.50
2023-11-05T00:10:52.269Z,10.50
2023-11-05T00:13:19.082Z,10.50
2023-11-05T00:15:46.063Z,10.50
2023-11-05T00:18:14.042Z,10.50
2023-11-05T00:20:40.850Z,10.50
2023-11-05T00:23:07.622Z,10.40
2023-11-05T00:25:34.562Z,10.40
2023-11-05T00:28:01.340Z,10.40
2023-11-05T00:30:28.483Z,10.40
2023-11-05T00:32:55.423Z,10.40
2023-11-05T00:35:22.332Z,10.50
2023-11-05T00:37:49.216Z,10.50
2023-11-05T00:40:16.150Z,10.50
2023-11-05T00:42:42.879Z,10.50
2023-11-05T00:45:09.829Z,10.50
2023-11-05T00:47:36.620Z,10.50
2023-11-05T00:50:03.557Z,10.60
2023-11-05T00:52:30.488Z,10.60
2023-11-05T00:54:58.019Z,10.60
2023-11-05T00:57:24.936Z,10.60
2023-11-05T00:59:51.697Z,10.70
2023-11-05T01:02:18.542Z,10.60
2023-11-05T01:04:46.005Z,10.70
2023-11-05T01:07:12.872Z,10.70
2023-11-05T01:09:39.629Z,10.70
2023-11-05T01:12:06.807Z,10.80
2023-11-05T01:14:33.602Z,10.80
2023-11-05T01:17:00.363Z,10.80
2023-11-05T01:19:28.071Z,10.80
2023-11-05T01:21:54.891Z,10.80
2023-11-05T01:24:21.754Z,10.80
2023-11-05T01:26:48.552Z,10.80
2023-11-05T01:29:15.388Z,10.80
2023-11-05T01:31:42.202Z,10.80
2023-11-05T01:34:09.054Z,10.80
2023-11-05T01:36:35.913Z,10.90
2023-11-05T01:39:02.774Z,10.90
2023-11-05T01:41:30.241Z,10.90
2023-11-05T01:43:57.183Z,10.90
2023-11-05T01:46:24.242Z,11.00
2023-11-05T01:48:51.053Z,11.00
2023-11-05T01:51:18.064Z,11.00
2023-11-05T01:53:48.687Z,10.90
2023-11-05T01:56:15.529Z,11.00
2023-11-05T01:58:42.760Z,11.00
2023-11-05T02:01:11.068Z,11.10
2023-11-05T02:03:41.907Z,11.10
2023-11-05T02:06:09.482Z,11.20
2023-11-05T02:08:37.032Z,11.20
2023-11-05T02:11:04.234Z,11.30
2023-11-05T02:13:48.228Z,11.30
2023-11-05T02:16:17.150Z,11.40
2023-11-05T02:18:44.607Z,11.50
2023-11-05T02:21:15.746Z,11.40
2023-11-05T02:23:42.789Z,11.50
2023-11-05T02:26:10.861Z,11.50
2023-11-05T02:28:37.904Z,11.50
2023-11-05T02:31:04.836Z,11.60
2023-11-05T02:33:31.653Z,11.60
2023-11-05T02:35:59.134Z,11.50
2023-11-05T02:38:25.963Z,11.60
2023-11-05T02:40:54.341Z,11.60
2023-11-05T02:43:21.185Z,11.60
2023-11-05T02:45:48.148Z,11.60
2023-11-05T02:48:15.052Z,11.60
2023-11-05T02:50:41.947Z,11.60
2023-11-05T02:53:09.677Z,11.70
2023-11-05T02:55:36.969Z,11.70
2023-11-05T02:58:04.437Z,11.70
2023-11-05T03:00:33.504Z,11.70
2023-11-05T03:03:02.236Z,11.80
2023-11-05T03:05:29.090Z,11.70
2023-11-05T03:07:55.849Z,11.80
2023-11-05T03:10:23.087Z,11.90
2023-11-05T03:12:50.891Z,11.80
2023-11-05T03:15:17.855Z,11.80
2023-11-05T03:17:44.767Z,11.90
2023-11-05T03:20:13.569Z,11.80
2023-11-05T03:22:40.901Z,11.80
2023-11-05T03:25:08.796Z,11.80
2023-11-05T03:27:35.753Z,11.80
2023-11-05T03:30:02.580Z,11.80
2023-11-05T03:32:29.658Z,11.80
2023-11-05T03:34:57.783Z,11.70
2023-11-05T03:37:24.691Z,11.70
2023-11-05T03:39:51.694Z,11.60
2023-11-05T03:42:20.089Z,11.70
2023-11-05T03:44:47.248Z,11.60
2023-11-05T03:47:14.923Z,11.60
2023-11-05T03:49:41.982Z,11.50
2023-11-05T03:52:09.389Z,11.50
2023-11-05T03:54:36.928Z,11.50
2023-11-05T03:57:04.673Z,11.40
2023-11-05T03:59:33.003Z,11.40
2023-11-05T04:01:59.936Z,11.40
2023-11-05T04:04:28.882Z,11.30
2023-11-05T04:06:55.852Z,11.20
2023-11-05T04:09:22.809Z,11.20
2023-11-05T04:11:49.845Z,11.20
2023-11-05T04:14:16.937Z,11.00
2023-11-05T04:16:44.748Z,11.00
2023-11-05T04:19:13.625Z,11.00
2023-11-05T04:21:40.674Z,10.90
2023-11-05T04:24:07.851Z,10.90
2023-11-05T04:26:35.029Z,10.80
2023-11-05T04:29:03.251Z,10.80
2023-11-05T04:31:34.916Z,10.70
2023-11-05T04:34:39.046Z,10.80
2023-11-05T04:37:07.160Z,10.80
2023-11-05T04:39:34.029Z,10.80
2023-11-05T04:42:00.928Z,10.90
2023-11-05T04:44:29.288Z,10.90
2023-11-05T04:46:59.083Z,11.00
2023-11-05T04:49:29.769Z,11.00
2023-11-05T04:51:56.910Z,11.00
2023-11-05T04:54:23.956Z,11.10
2023-11-05T04:56:51.142Z,11.10
2023-11-05T04:59:18.250Z,11.10
2023-11-05T05:01:46.013Z,11.10
2023-11-05T05:04:13.098Z,11.10
2023-11-05T05:06:40.096Z,11.10
2023-11-05T05:09:10.276Z,11.10
2023-11-05T05:11:37.230Z,11.10
2023-11-05T05:14:04.068Z,11.10
2023-11-05T05:16:31.257Z,11.10
2023-11-05T05:18:58.221Z,11.20
2023-11-05T05:21:25.045Z,11.10
2023-11-05T05:23:53.468Z,11.10
2023-11-05T05:26:20.784Z,11.10
2023-11-05T05:28:49.000Z,11.20
2023-11-05T05:31:17.084Z,11.10
2023-11-05T05:33:45.348Z,11.10
2023-11-05T05:36:13.863Z,11.10
2023-11-05T05:38:40.855Z,11.20
2023-11-05T05:41:07.876Z,11.20
2023-11-05T05:43:34.796Z,11.30
2023-11-05T05:46:01.650Z,11.30
2023-11-05T05:48:28.489Z,11.30
2023-11-05T05:50:55.432Z,11.40
2023-11-05T05:53:22.539Z,11.40
2023-11-05T05:55:49.586Z,11.40
2023-11-05T05:58:17.483Z,11.50
2023-11-05T06:00:47.444Z,11.50
2023-11-05T06:03:14.344Z,11.50
2023-11-05T06:05:41.317Z,11.50
2023-11-05T06:08:08.859Z,11.50
2023-11-05T06:10:37.832Z,11.50
2023-11-05T06:13:04.659Z,11.50
2023-11-05T06:15:32.105Z,11.50
2023-11-05T06:17:59.116Z,11.50
2023-11-05T06:20:26.019Z,11.50
2023-11-05T06:22:53.333Z,11.50
2023-11-05T06:25:20.765Z,11.40
2023-11-05T06:27:47.627Z,11.50
2023-11-05T06:30:14.664Z,11.50
2023-11-05T06:32:42.188Z,11.50
2023-11-05T06:35:09.524Z,11.60
2023-11-05T06:37:36.490Z,11.60
2023-11-05T06:40:04.854Z,11.60
2023-11-05T06:42:31.778Z,11.60
2023-11-05T06:44:58.556Z,11.60
2023-11-05T06:47:25.441Z,11.60
2023-11-05T06:49:52.269Z,11.70
2023-11-05T06:52:19.398Z,11.70
2023-11-05T06:54:47.126Z,11.70
2023-11-05T06:57:14.008Z,11.70
2023-11-05T06:59:40.766Z,11.70
2023-11-05T07:02:11.672Z,11.70
2023-11-05T07:04:38.930Z,11.70
2023-11-05T07:07:06.784Z,11.70
2023-11-05T07:09:33.833Z,11.70
2023-11-05T07:12:01.367Z,11.70
2023-11-05T07:14:28.260Z,11.80
2023-11-05T07:16:54.997Z,11.80
2023-11-05T07:19:22.180Z,11.80
2023-11-05T07:21:49.148Z,11.80
2023-11-05T07:24:16.300Z,11.80
2023-11-05T07:26:44.655Z,11.90
2023-11-05T07:29:14.931Z,11.90
2023-11-05T07:31:45.121Z,12.00
2023-11-05T07:34:12.605Z,12.10
2023-11-05T07:36:40.019Z,12.10
2023-11-05T07:39:10.918Z,12.10
2023-11-05T07:41:39.014Z,12.10
2023-11-05T07:44:06.729Z,12.10
2023-11-05T07:46:34.947Z,12.30
2023-11-05T07:49:02.779Z,12.20
2023-11-05T07:51:31.206Z,12.30
2023-11-05T07:54:00.349Z,12.30
2023-11-05T07:56:27.218Z,12.40
2023-11-05T07:58:54.035Z,12.30
2023-11-05T08:01:21.036Z,12.50
2023-11-05T08:03:47.993Z,12.50
2023-11-05T08:06:15.117Z,12.60
2023-11-05T08:08:42.942Z,12.60
2023-11-05T08:11:09.882Z,12.60
2023-11-05T08:13:36.662Z,12.50
2023-11-05T08:16:04.021Z,12.40
2023-11-05T08:18:31.387Z,12.30
2023-11-05T08:20:58.305Z,12.40
2023-11-05T08:23:25.187Z,12.30
2023-11-05T08:25:52.791Z,12.20
2023-11-05T08:28:25.768Z,12.20
2023-11-05T08:30:54.125Z,12.20
2023-11-05T08:33:21.415Z,12.20
2023-11-05T08:35:48.775Z,12.30
2023-11-05T08:38:15.917Z,12.30
2023-11-05T08:40:42.914Z,12.50
2023-11-05T08:43:09.759Z,12.40
2023-11-05T08:45:45.687Z,12.40
2023-11-05T08:48:17.593Z,12.50
2023-11-05T08:50:44.629Z,12.40
2023-11-05T08:53:11.519Z,12.50
2023-11-05T08:55:39.048Z,12.50
2023-11-05T08:58:06.439Z,12.40
2023-11-05T09:00:36.410Z,12.40
2023-11-05T09:03:05.432Z,12.50
2023-11-05T09:05:32.662Z,12.50
2023-11-05T09:10:57.156Z,12.40
2023-11-05T09:13:26.632Z,12.40
2023-11-05T09:15:54.608Z,12.40
2023-11-05T09:18:22.620Z,12.30
2023-11-05T09:20:50.240Z,12.30
2023-11-05T09:23:17.100Z,12.20
2023-11-05T09:25:44.087Z,12.10
2023-11-05T09:28:10.944Z,12.00
2023-11-05T09:30:37.729Z,11.80
2023-11-05T09:33:04.631Z,11.60
2023-11-05T09:35:32.050Z,11.40
2023-11-05T09:37:59.642Z,11.20
2023-11-05T09:40:26.637Z,11.00
2023-11-05T09:43:01.913Z,10.90
2023-11-05T09:45:30.205Z,10.80
2023-11-05T09:47:58.351Z,10.70
2023-11-05T09:50:26.056Z,10.70
2023-11-05T09:52:53.454Z,10.70
2023-11-05T09:55:20.732Z,10.60
2023-11-05T09:57:47.778Z,10.70
2023-11-05T10:00:15.560Z,10.70
2023-11-05T10:02:56.697Z,10.70
2023-11-05T10:05:30.166Z,10.60
2023-11-05T10:07:57.209Z,10.70
2023-11-05T10:10:25.060Z,10.70
2023-11-05T10:12:52.566Z,10.80
2023-11-05T10:15:20.136Z,10.70
2023-11-05T10:17:47.184Z,10.70
2023-11-05T10:20:14.667Z,10.70
2023-11-05T10:22:45.614Z,10.70
2023-11-05T10:25:23.998Z,10.70
2023-11-05T10:27:55.618Z,10.80
2023-11-05T10:30:22.871Z,10.80
2023-11-05T10:32:52.692Z,10.90
2023-11-05T10:35:21.304Z,11.00
2023-11-05T10:37:49.489Z,11.10
2023-11-05T10:40:20.405Z,11.10
2023-11-05T10:42:52.503Z,11.20
2023-11-05T10:45:22.661Z,11.20
2023-11-05T10:47:55.668Z,11.20
2023-11-05T10:50:31.630Z,11.10
2023-11-05T10:53:04.233Z,11.10
2023-11-05T10:55:36.899Z,11.20
2023-11-05T10:58:17.563Z,11.20
2023-11-05T11:00:59.527Z,11.30
2023-11-05T11:03:27.610Z,11.20
2023-11-05T11:06:02.493Z,11.30
2023-11-05T11:08:31.373Z,11.30
2023-11-05T11:11:09.283Z,11.40
2023-11-05T11:13:39.238Z,11.40
2023-11-05T11:16:06.834Z,11.40
2023-11-05T11:18:34.486Z,11.30
2023-11-05T11:21:04.027Z,11.30
2023-11-05T11:23:32.112Z,11.30
2023-11-05T11:26:02.558Z,11.20
2023-11-05T11:28:30.879Z,11.30
2023-11-05T11:30:58.250Z,11.20
2023-11-05T11:33:26.720Z,11.20
2023-11-05T11:35:53.561Z,11.30
2023-11-05T11:38:20.559Z,11.30
2023-11-05T11:40:58.267Z,11.40
2023-11-05T11:43:29.080Z,11.60
2023-11-05T11:45:56.386Z,11.70
2023-11-05T11:48:26.769Z,11.80
2023-11-05T11:50:56.080Z,11.80
2023-11-05T11:53:41.869Z,12.00
2023-11-05T11:56:09.482Z,12.00
2023-11-05T11:58:42.719Z,12.10
2023-11-05T12:01:17.247Z,12.10
2023-11-05T12:03:46.501Z,12.10
2023-11-05T12:06:14.911Z,12.10
2023-11-05T12:08:46.633Z,12.10
2023-11-05T12:11:14.980Z,12.10
2023-11-05T12:13:45.451Z,12.20
2023-11-05T12:16:13.549Z,12.30
2023-11-05T12:18:42.401Z,12.40
2023-11-05T12:21:13.229Z,12.40
2023-11-05T12:23:42.008Z,12.50
2023-11-05T12:26:10.877Z,12.60
2023-11-05T12:28:38.091Z,12.70
2023-11-05T12:31:07.855Z,12.90
2023-11-05T12:33:39.626Z,13.20
2023-11-05T12:36:11.444Z,13.40
2023-11-05T12:38:38.623Z,13.50
2023-11-05T12:41:06.273Z,13.50
2023-11-05T12:43:33.721Z,13.40
2023-11-05T12:46:01.109Z,13.40
2023-11-05T12:48:32.603Z,13.30
2023-11-05T12:51:02.265Z,13.30
2023-11-05T12:53:32.957Z,13.20
2023-11-05T12:56:08.254Z,13.20
2023-11-05T12:58:36.338Z,13.20
2023-11-05T13:01:05.809Z,13.20
2023-11-05T13:03:35.828Z,13.20
2023-11-05T13:06:06.336Z,13.20
2023-11-05T13:08:33.559Z,13.20
2023-11-05T13:11:03.885Z,13.30
2023-11-05T13:13:30.790Z,13.30
2023-11-05T13:15:57.472Z,13.30
2023-11-05T13:18:25.598Z,13.20
2023-11-05T13:20:53.096Z,13.20
2023-11-05T13:23:20.176Z,13.20
2023-11-05T13:25:47.265Z,13.20
2023-11-05T13:28:14.663Z,13.30
2023-11-05T13:30:41.577Z,13.30
2023-11-05T13:33:08.407Z,13.30
2023-11-05T13:35:35.472Z,13.30
2023-11-05T13:38:07.513Z,13.20
2023-11-05T13:40:35.394Z,13.20
2023-11-05T13:43:02.443Z,13.20
2023-11-05T13:45:29.227Z,13.30
2023-11-05T13:47:56.301Z,13.30
2023-11-05T13:50:23.526Z,13.30
2023-11-05T13:52:50.474Z,13.20
2023-11-05T13:55:17.389Z,13.10
2023-11-05T13:57:44.196Z,13.10
2023-11-05T14:00:14.990Z,12.90
2023-11-05T14:02:42.466Z,12.70
2023-11-05T14:05:09.522Z,12.60
2023-11-05T14:07:37.948Z,12.50
2023-11-05T14:10:08.022Z,12.40
2023-11-05T14:12:36.384Z,12.40
2023-11-05T14:15:07.427Z,12.40
2023-11-05T14:17:35.680Z,12.50
2023-11-05T14:20:07.564Z,12.50
2023-11-05T14:22:34.524Z,12.60
2023-11-05T14:25:01.413Z,12.60
2023-11-05T14:27:28.263Z,12.70
2023-11-05T14:29:59.008Z,12.80
2023-11-05T14:32:25.948Z,12.80
2023-11-05T14:34:53.082Z,12.90
2023-11-05T14:37:20.001Z,13.00
2023-11-05T14:39:46.905Z,13.00
2023-11-05T14:42:14.402Z,12.80
2023-11-05T14:44:42.027Z,12.50
2023-11-05T14:47:10.175Z,12.30
2023-11-05T14:49:37.178Z,12.10
2023-11-05T14:52:06.979Z,11.90
2023-11-05T14:54:37.087Z,11.60
2023-11-05T14:57:06.248Z,11.30
2023-11-05T14:59:33.333Z,11.00
2023-11-05T15:02:00.412Z,10.80
2023-11-05T15:04:27.772Z,10.80
2023-11-05T15:06:55.676Z,10.80
2023-11-05T15:09:22.822Z,10.90
2023-11-05T15:11:49.779Z,10.90
2023-11-05T15:14:17.083Z,10.90
2023-11-05T15:16:44.690Z,10.90
2023-11-05T15:19:11.779Z,11.00
2023-11-05T15:21:42.063Z,11.10
2023-11-05T15:24:12.057Z,11.20
2023-11-05T15:26:39.976Z,11.20
2023-11-05T15:29:07.164Z,11.20
2023-11-05T15:31:34.328Z,11.20
2023-11-05T15:34:02.737Z,11.20
2023-11-05T15:36:30.387Z,11.20
2023-11-05T15:38:57.843Z,11.20
2023-11-05T15:41:25.224Z,11.10
2023-11-05T15:43:52.590Z,11.20
2023-11-05T15:46:19.832Z,11.20
2023-11-05T15:48:46.858Z,11.20
2023-11-05T15:51:13.972Z,11.20
2023-11-05T15:53:41.160Z,11.20
2023-11-05T15:56:08.358Z,11.20
2023-11-05T15:58:35.327Z,11.20
2023-11-05T16:01:02.430Z,11.20
2023-11-05T16:03:34.134Z,11.30
2023-11-05T16:06:02.369Z,11.30
2023-11-05T16:08:29.912Z,11.30
2023-11-05T16:10:56.779Z,11.30
2023-11-05T16:13:23.828Z,11.30
2023-11-05T16:15:50.990Z,11.30
2023-11-05T16:18:17.875Z,11.40
2023-11-05T16:20:44.712Z,11.40
2023-11-05T16:23:11.778Z,11.30
2023-11-05T16:25:39.092Z,11.30
2023-11-05T16:28:05.948Z,11.30
2023-11-05T16:30:36.150Z,11.40
2023-11-05T16:33:03.213Z,11.40
2023-11-05T16:35:30.314Z,11.30
2023-11-05T16:37:57.487Z,11.30
2023-11-05T16:40:24.284Z,11.30
2023-11-05T16:42:51.855Z,11.40
2023-11-05T16:45:19.534Z,11.30
2023-11-05T16:47:46.783Z,11.30
2023-11-05T16:50:18.272Z,11.30
2023-11-05T16:52:45.932Z,11.30
2023-11-05T16:55:16.474Z,11.20
2023-11-05T16:57:44.519Z,11.30
2023-11-05T17:00:12.348Z,11.30
2023-11-05T17:02:40.233Z,11.20
2023-11-05T17:05:08.329Z,11.20
2023-11-05T17:07:36.117Z,11.20
2023-11-05T17:10:03.182Z,11.20
2023-11-05T17:12:30.196Z,11.10
2023-11-05T17:15:02.914Z,11.10
2023-11-05T17:17:32.017Z,11.00
2023-11-05T17:19:59.804Z,11.00
2023-11-05T17:22:27.067Z,10.90
2023-11-05T17:24:54.132Z,10.90
2023-11-05T17:27:22.162Z,10.90
2023-11-05T17:29:49.203Z,10.90
2023-11-05T17:32:16.135Z,10.90
2023-11-05T17:34:43.384Z,10.90
2023-11-05T17:37:10.185Z,10.90
2023-11-05T17:39:37.735Z,10.90
2023-11-05T17:42:05.837Z,10.90
2023-11-05T17:44:32.792Z,10.90
2023-11-05T17:46:59.857Z,10.90
2023-11-05T17:49:26.953Z,10.90
2023-11-05T17:51:54.110Z,10.80
2023-11-05T17:54:20.916Z,10.80
2023-11-05T17:56:48.161Z,10.70
2023-11-05T17:59:15.034Z,10.70
2023-11-05T18:01:41.896Z,10.70
2023-11-05T18:04:08.817Z,10.80
2023-11-05T18:06:40.330Z,10.70
2023-11-05T18:09:07.385Z,10.70
2023-11-05T18:11:34.475Z,10.70
2023-11-05T18:14:01.591Z,10.70
2023-11-05T18:16:28.589Z,10.70
2023-11-05T18:18:55.313Z,10.80
2023-11-05T18:21:22.192Z,10.80
2023-11-05T18:23:49.267Z,10.80
2023-11-05T18:26:18.700Z,10.90
2023-11-05T18:28:45.658Z,10.90
2023-11-05T18:31:22.138Z,10.90
2023-11-05T18:33:56.436Z,10.90
2023-11-05T18:36:24.838Z,11.00
2023-11-05T18:38:52.608Z,10.90
2023-11-05T18:41:19.602Z,10.90
2023-11-05T18:43:46.507Z,10.90
2023-11-05T18:46:18.101Z,10.90
2023-11-05T18:48:49.289Z,10.90
2023-11-05T18:51:19.514Z,10.80
2023-11-05T18:53:46.497Z,10.70
2023-11-05T18:56:13.322Z,10.60
2023-11-05T18:58:41.597Z,10.60
2023-11-05T19:01:08.583Z,10.60
2023-11-05T19:03:36.285Z,10.60
2023-11-05T19:06:04.608Z,10.50
2023-11-05T19:08:32.177Z,10.50
2023-11-05T19:13:29.070Z,10.50
2023-11-05T19:15:56.859Z,10.50
2023-11-05T19:18:23.964Z,10.50
2023-11-05T19:20:52.441Z,10.50
2023-11-05T19:23:19.446Z,10.50
2023-11-05T19:25:46.347Z,10.40
2023-11-05T19:28:13.458Z,10.50
2023-11-05T19:30:40.569Z,10.50
2023-11-05T19:33:07.769Z,10.40
2023-11-05T19:35:34.845Z,10.40
2023-11-05T19:38:01.712Z,10.30
2023-11-05T19:40:28.870Z,10.30
2023-11-05T19:42:55.822Z,10.30
2023-11-05T19:45:22.657Z,10.30
2023-11-05T19:47:49.894Z,10.40
2023-11-05T19:50:17.169Z,10.40
2023-11-05T19:52:44.276Z,10.30
2023-11-05T19:55:11.412Z,10.30
2023-11-05T19:57:38.334Z,10.30
2023-11-05T20:00:05.347Z,10.30
2023-11-05T20:02:39.627Z,10.30
2023-11-05T20:05:06.975Z,10.30
2023-11-05T20:07:36.463Z,10.40
2023-11-05T20:10:06.698Z,10.40
2023-11-05T20:12:35.805Z,10.40
2023-11-05T20:15:03.274Z,10.30
2023-11-05T20:17:31.789Z,10.30
2023-11-05T20:19:58.773Z,10.30
2023-11-05T20:22:28.664Z,10.30
2023-11-05T20:24:55.555Z,10.30
2023-11-05T20:27:24.057Z,10.30
2023-11-05T20:29:51.690Z,10.30
2023-11-05T20:32:18.740Z,10.40
2023-11-05T20:34:45.827Z,10.30
2023-11-05T20:37:12.949Z,10.30
2023-11-05T20:39:39.833Z,10.30
2023-11-05T20:42:06.597Z,10.40
2023-11-05T20:44:34.515Z,10.40
2023-11-05T20:47:03.354Z,10.40
2023-11-05T20:49:30.492Z,10.50
2023-11-05T20:51:57.768Z,10.50
2023-11-05T20:54:24.999Z,10.60
2023-11-05T20:56:52.756Z,10.70
2023-11-05T20:59:19.800Z,10.70
2023-11-05T21:01:46.626Z,10.60
2023-11-05T21:04:14.954Z,10.70
2023-11-05T21:06:41.886Z,10.60
2023-11-05T21:09:08.721Z,10.60
2023-11-05T21:11:35.781Z,10.60
2023-11-05T21:14:03.573Z,10.60
2023-11-05T21:16:30.423Z,10.60
2023-11-05T21:18:57.306Z,10.60
2023-11-05T21:21:24.279Z,10.60
2023-11-05T21:23:52.177Z,10.50
2023-11-05T21:26:19.017Z,10.50
2023-11-05T21:28:46.072Z,10.50
2023-11-05T21:31:15.961Z,10.50
2023-11-05T21:33:42.875Z,10.50
2023-11-05T21:36:09.659Z,10.50
2023-11-05T21:38:38.925Z,10.50
2023-11-05T21:41:06.425Z,10.50
2023-11-05T21:43:33.222Z,10.60
2023-11-05T21:46:06.655Z,10.60
2023-11-05T21:48:39.234Z,10.60
2023-11-05T21:51:08.051Z,10.60
2023-11-05T21:53:34.841Z,10.70
2023-11-05T21:56:03.562Z,10.70
2023-11-05T21:58:30.414Z,10.70
2023-11-05T22:00:57.253Z,10.70
2023-11-05T22:03:24.055Z,10.70
2023-11-05T22:05:51.069Z,10.70
2023-11-05T22:08:18.050Z,10.70
2023-11-05T22:10:44.873Z,10.70
2023-11-05T22:13:11.952Z,10.70
2023-11-05T22:15:38.838Z,10.60
2023-11-05T22:18:05.840Z,10.70
2023-11-05T22:20:33.120Z,10.60
2023-11-05T22:23:00.026Z,10.60
2023-11-05T22:25:26.729Z,10.60
2023-11-05T22:28:09.728Z,10.50
2023-11-05T22:30:37.934Z,10.50
2023-11-05T22:33:05.239Z,10.50
2023-11-05T22:35:32.113Z,10.50
2023-11-05T22:37:58.922Z,10.50
2023-11-05T22:40:25.676Z,10.40
2023-11-05T22:42:52.454Z,10.50
2023-11-05T22:45:19.892Z,10.50
2023-11-05T22:47:46.945Z,10.50
2023-11-05T22:50:13.969Z,10.60
2023-11-05T22:52:41.975Z,10.60
2023-11-05T22:55:09.265Z,10.50
2023-11-05T22:57:36.061Z,10.50
2023-11-05T23:00:03.125Z,10.50
2023-11-05T23:02:30.322Z,10.50
2023-11-05T23:04:57.185Z,10.50
2023-11-05T23:07:23.932Z,10.50
2023-11-05T23:09:51.232Z,10.50
2023-11-05T23:12:17.986Z,10.40
2023-11-05T23:14:44.994Z,10.50
2023-11-05T23:17:11.827Z,10.50
2023-11-05T23:19:39.362Z,10.50
2023-11-05T23:22:06.102Z,10.50
2023-11-05T23:24:32.876Z,10.50
2023-11-05T23:26:59.771Z,10.50
2023-11-05T23:29:26.534Z,10.40
2023-11-05T23:31:53.338Z,10.40
2023-11-05T23:34:20.151Z,10.50
2023-11-05T23:36:46.930Z,10.50
2023-11-05T23:39:13.722Z,10.50
2023-11-05T23:41:40.562Z,10.60
2023-11-05T23:44:07.504Z,10.60
2023-11-05T23:46:34.231Z,10.70
2023-11-05T23:49:01.148Z,10.70
2023-11-05T23:51:27.976Z,10.80
2023-11-05T23:53:54.749Z,10.80
2023-11-05T23:56:21.590Z,10.80
2023-11-05T23:58:49.172Z,10.80
